Diggins, Missouri
Current Conditions -  °F | °C
As of 1:21 AM on Saturday 20 Dec 2014 (Local Time) from KSGF Reporting Station
Haze Haze  
Wind Chill: 32°   Ceiling: 400
Heat Index: 37°   Visibility: 6mi
Dew Point: 35°   Wind: 7mph
Humidity: 93%   Direction: 160°SSE
Pressure: 30.18"   Gusts: NA
Location:  37.17°N, 92.85°W
Report Text: KSGF 200721Z 16006KT 6SM BR OVC004 03/02 A3018 RMK AO2 RAB05E11 P0000 T00280017
Loading
Personal Weather Stations






























Interactive Weather Map New forecast layout! Learn more

10-Day Weather Forecast

Advertisements
Track Severe Weather on mobile